createdAt,value
2023-03-31T14:07:26.647Z,3.20
2023-03-31T14:08:26.757Z,3.80
2023-03-31T14:09:26.726Z,3.70
2023-03-31T14:10:26.800Z,3.50
2023-03-31T14:11:26.906Z,3.40
2023-03-31T14:12:27.116Z,3.50
2023-03-31T14:13:27.067Z,3.10
2023-03-31T14:14:27.124Z,3.40
2023-03-31T14:15:27.198Z,3.10
2023-03-31T14:16:27.399Z,2.90
2023-03-31T14:17:27.435Z,2.80
2023-03-31T14:18:27.469Z,2.80
2023-03-31T14:19:27.550Z,2.90
2023-03-31T14:20:27.661Z,2.90
2023-03-31T14:21:27.727Z,2.70
2023-03-31T14:22:32.198Z,2.30
2023-03-31T14:23:27.971Z,2.20
2023-03-31T14:24:28.102Z,2.30
2023-03-31T14:25:28.199Z,2.10
2023-03-31T14:26:28.320Z,2.30
2023-03-31T14:27:28.479Z,2.40
2023-03-31T14:28:28.552Z,2.10
2023-03-31T14:29:28.715Z,2.20
2023-03-31T14:30:28.813Z,2.20
2023-03-31T14:31:28.997Z,2.10
2023-03-31T14:32:29.172Z,2.20
2023-03-31T14:33:29.192Z,1.80
2023-03-31T14:34:29.289Z,2.10
2023-03-31T14:35:29.401Z,2.20
2023-03-31T14:36:29.628Z,2.10
2023-03-31T14:37:29.661Z,2.10
2023-03-31T14:38:29.838Z,2.00
2023-03-31T14:39:29.871Z,2.00
2023-03-31T14:40:29.958Z,1.90
2023-03-31T14:41:30.122Z,1.80
2023-03-31T14:42:30.270Z,2.00
2023-03-31T14:43:30.388Z,2.20
2023-03-31T14:44:30.420Z,2.10
2023-03-31T14:45:30.575Z,2.00
2023-03-31T14:46:30.660Z,1.90
2023-03-31T14:47:30.810Z,2.00
2023-03-31T14:48:30.873Z,2.00
2023-03-31T14:49:30.992Z,2.00
2023-03-31T14:50:31.127Z,2.10
2023-03-31T14:51:31.201Z,2.10
2023-03-31T14:52:31.301Z,2.20
2023-03-31T14:53:31.396Z,2.00
2023-03-31T14:54:31.503Z,2.00
2023-03-31T14:55:44.072Z,1.90
2023-03-31T14:56:31.727Z,1.90
2023-03-31T14:57:31.833Z,2.00
2023-03-31T14:58:31.933Z,2.00
2023-03-31T14:59:32.041Z,2.00
2023-03-31T15:00:32.295Z,2.10
2023-03-31T15:01:32.319Z,1.90
2023-03-31T15:02:32.454Z,1.80
2023-03-31T15:03:32.546Z,2.00
2023-03-31T15:04:41.869Z,1.70
2023-03-31T15:05:32.961Z,1.60
2023-03-31T15:06:32.949Z,1.70
2023-03-31T15:07:33.089Z,1.80
2023-03-31T15:08:33.188Z,1.80
2023-03-31T15:09:33.329Z,2.10
2023-03-31T15:10:33.459Z,1.70
2023-03-31T15:11:33.621Z,1.50
2023-03-31T15:12:33.766Z,1.60
2023-03-31T15:13:33.880Z,1.60
2023-03-31T15:14:34.033Z,1.60
2023-03-31T15:15:34.160Z,1.70
2023-03-31T15:16:34.307Z,1.80
2023-03-31T15:17:34.498Z,1.80
2023-03-31T15:18:34.521Z,1.60
2023-03-31T15:19:34.644Z,1.60
2023-03-31T15:20:35.159Z,1.70
2023-03-31T15:21:34.869Z,1.60
2023-03-31T15:22:35.011Z,1.70
2023-03-31T15:23:35.105Z,1.80
2023-03-31T15:24:35.346Z,1.90
2023-03-31T15:25:35.358Z,1.60
2023-03-31T15:26:41.301Z,1.60
2023-03-31T15:27:37.471Z,1.80
2023-03-31T15:28:35.715Z,1.60
2023-03-31T15:29:36.180Z,1.80
2023-03-31T15:30:37.130Z,1.70
2023-03-31T15:31:36.180Z,1.80
2023-03-31T15:32:36.316Z,1.60
2023-03-31T15:33:36.518Z,1.70
2023-03-31T15:34:36.520Z,1.90
2023-03-31T15:35:36.542Z,1.70
2023-03-31T15:36:36.645Z,1.80
2023-03-31T15:37:36.757Z,1.80
2023-03-31T15:38:36.877Z,1.90
2023-03-31T15:39:37.045Z,1.70
2023-03-31T15:40:37.123Z,2.00
2023-03-31T15:41:37.243Z,2.00
2023-03-31T15:42:39.368Z,1.80
2023-03-31T15:43:37.544Z,1.60
2023-03-31T15:44:37.683Z,1.80
2023-03-31T15:45:37.758Z,1.80
2023-03-31T15:46:37.916Z,1.70
2023-03-31T15:47:38.053Z,1.60
2023-03-31T15:48:38.149Z,1.90
2023-03-31T15:49:38.302Z,1.80
2023-03-31T15:50:38.368Z,1.60
2023-03-31T15:51:38.490Z,1.50
2023-03-31T15:52:38.602Z,1.80
2023-03-31T15:53:38.726Z,1.60
2023-03-31T15:54:38.868Z,1.80
2023-03-31T15:55:38.958Z,1.60
2023-03-31T15:56:39.117Z,1.80
2023-03-31T15:57:39.200Z,1.70
2023-03-31T15:58:39.347Z,1.60
2023-03-31T15:59:54.637Z,1.60
2023-03-31T16:00:39.580Z,1.40
2023-03-31T16:01:39.772Z,1.30
2023-03-31T16:02:39.952Z,1.70
2023-03-31T16:03:39.992Z,1.50
2023-03-31T16:04:40.154Z,1.60
2023-03-31T16:06:40.463Z,1.50
2023-03-31T16:07:40.596Z,1.40
2023-03-31T16:08:42.772Z,1.80
2023-03-31T16:09:40.937Z,1.70
2023-03-31T16:10:41.072Z,1.60
2023-03-31T16:11:41.238Z,1.60
2023-03-31T16:12:41.443Z,1.60
2023-03-31T16:13:41.529Z,1.50
2023-03-31T16:14:41.571Z,1.50
2023-03-31T16:15:41.719Z,1.60
2023-03-31T16:16:41.847Z,1.40
2023-03-31T16:17:42.046Z,1.80
2023-03-31T16:18:42.085Z,1.60
2023-03-31T16:19:42.173Z,1.60
2023-03-31T16:20:42.297Z,1.70
2023-03-31T16:21:42.418Z,1.90
2023-03-31T16:22:42.691Z,2.40
2023-03-31T16:23:42.673Z,1.80
2023-03-31T16:24:42.791Z,2.40
2023-03-31T16:25:42.899Z,2.10
2023-03-31T16:26:43.028Z,2.70
2023-03-31T16:27:43.254Z,2.90
2023-03-31T16:28:43.277Z,2.30
2023-03-31T16:29:43.375Z,2.20
2023-03-31T16:30:43.497Z,2.10
2023-03-31T16:31:43.662Z,2.10
2023-03-31T16:32:44.033Z,2.00
2023-03-31T16:33:43.926Z,1.90
2023-03-31T16:34:44.037Z,2.00
2023-03-31T16:35:44.189Z,2.20
2023-03-31T16:36:44.343Z,2.20
2023-03-31T16:37:44.796Z,2.00
2023-03-31T16:38:44.639Z,2.00
2023-03-31T16:39:44.737Z,1.90
2023-03-31T16:40:44.893Z,1.90
2023-03-31T16:41:45.027Z,2.00
2023-03-31T16:42:45.296Z,1.80
2023-03-31T16:43:45.387Z,1.80
2023-03-31T16:44:47.520Z,2.10
2023-03-31T16:45:45.652Z,2.30
2023-03-31T16:46:45.834Z,1.70
2023-03-31T16:47:46.158Z,1.80
2023-03-31T16:48:46.176Z,2.20
2023-03-31T16:49:46.254Z,1.80
2023-03-31T16:50:46.396Z,1.80
2023-03-31T16:51:46.630Z,1.90
2023-03-31T16:52:46.966Z,1.60
2023-03-31T16:53:46.872Z,2.30
2023-03-31T16:54:46.985Z,2.00
2023-03-31T16:55:47.138Z,2.10
2023-03-31T16:56:47.316Z,2.10
2023-03-31T16:57:47.451Z,2.20
2023-03-31T16:58:47.650Z,2.10
2023-03-31T16:59:47.808Z,2.00
2023-03-31T17:00:47.944Z,2.10
2023-03-31T17:01:48.051Z,1.80
2023-03-31T17:02:48.243Z,2.30
2023-03-31T17:03:48.732Z,2.30
2023-03-31T17:04:48.521Z,2.40
2023-03-31T17:05:48.604Z,2.60
2023-03-31T17:06:48.742Z,2.50
2023-03-31T17:07:48.871Z,2.10
2023-03-31T17:08:49.044Z,2.40
2023-03-31T17:09:49.138Z,2.40
2023-03-31T17:10:49.324Z,2.60
2023-03-31T17:11:49.416Z,2.50
2023-03-31T17:12:49.548Z,2.20
2023-03-31T17:13:49.720Z,2.50
2023-03-31T17:14:49.852Z,2.80
2023-03-31T17:15:52.121Z,3.30
2023-03-31T17:16:50.185Z,3.80
2023-03-31T17:17:50.343Z,2.50
2023-03-31T17:18:50.396Z,4.00
2023-03-31T17:19:50.552Z,4.50
2023-03-31T17:20:50.728Z,4.30
2023-03-31T17:21:50.842Z,3.20
2023-03-31T17:22:50.981Z,3.10
2023-03-31T17:23:51.136Z,3.80
2023-03-31T17:24:51.242Z,4.00
2023-03-31T17:25:51.428Z,3.70
2023-03-31T17:26:51.521Z,3.60
2023-03-31T17:27:51.660Z,3.40
2023-03-31T17:28:51.873Z,3.30
2023-03-31T17:29:52.028Z,4.00
2023-03-31T17:30:52.070Z,2.90
2023-03-31T17:31:52.265Z,3.60
2023-03-31T17:32:52.668Z,4.60
2023-03-31T17:33:52.441Z,3.90
2023-03-31T17:34:52.617Z,3.20
2023-03-31T17:35:52.749Z,3.50
2023-03-31T17:36:52.938Z,2.50
2023-03-31T17:37:52.980Z,2.50
2023-03-31T17:38:53.116Z,2.40
2023-03-31T17:39:53.275Z,1.80
2023-03-31T17:40:53.390Z,1.80
2023-03-31T17:41:53.564Z,2.60
2023-03-31T17:42:53.681Z,2.20
2023-03-31T17:43:53.833Z,1.80
2023-03-31T17:44:53.985Z,1.80
2023-03-31T17:45:54.207Z,1.90
2023-03-31T17:46:54.429Z,2.20
2023-03-31T17:47:54.451Z,2.10
2023-03-31T17:48:54.585Z,2.00
2023-03-31T17:49:54.748Z,2.20
2023-03-31T17:50:54.847Z,2.80
2023-03-31T17:51:55.022Z,3.00
2023-03-31T17:52:55.119Z,2.40
2023-03-31T17:53:55.280Z,2.40
2023-03-31T17:54:55.426Z,2.70
2023-03-31T17:55:55.617Z,2.10
2023-03-31T17:56:55.861Z,2.40
2023-03-31T17:57:55.953Z,2.40
2023-03-31T17:58:56.125Z,2.50
2023-03-31T17:59:56.309Z,2.50
2023-03-31T18:00:56.504Z,2.30
2023-03-31T18:01:56.720Z,2.40
2023-03-31T18:02:56.901Z,2.60
2023-03-31T18:03:57.013Z,2.60
2023-03-31T18:04:57.286Z,2.70
2023-03-31T18:05:57.346Z,2.60
2023-03-31T18:06:57.532Z,2.40
2023-03-31T18:07:57.735Z,2.40
2023-03-31T18:08:57.877Z,2.50
2023-03-31T18:09:58.041Z,2.50
2023-03-31T18:10:58.215Z,2.70
2023-03-31T18:11:58.382Z,2.50
2023-03-31T18:12:58.705Z,2.50
2023-03-31T18:13:58.715Z,2.80
2023-03-31T18:14:58.891Z,2.90
2023-03-31T18:15:59.136Z,3.30
2023-03-31T18:16:59.250Z,2.90
2023-03-31T18:17:59.620Z,3.00
2023-03-31T18:18:59.597Z,2.90
2023-03-31T18:19:59.777Z,2.80
2023-03-31T18:20:59.963Z,3.00
2023-03-31T18:22:00.161Z,3.10
2023-03-31T18:23:00.381Z,2.70
2023-03-31T18:24:00.508Z,3.00
2023-03-31T18:25:00.703Z,3.90
2023-03-31T18:26:00.999Z,3.60
2023-03-31T18:27:01.036Z,4.70
2023-03-31T18:28:01.214Z,3.70
2023-03-31T18:29:01.399Z,4.00
2023-03-31T18:30:01.562Z,5.20
2023-03-31T18:31:01.774Z,4.20
2023-03-31T18:32:02.147Z,3.70
2023-03-31T18:33:02.153Z,3.50
2023-03-31T18:34:02.260Z,4.00
2023-03-31T18:35:02.492Z,3.20
2023-03-31T18:36:02.675Z,3.70
2023-03-31T18:37:02.855Z,4.60
2023-03-31T18:38:02.997Z,3.50
2023-03-31T18:39:03.392Z,5.10
2023-03-31T18:40:03.321Z,3.40
2023-03-31T18:41:03.510Z,3.60
2023-03-31T18:42:03.690Z,3.70
2023-03-31T18:43:03.880Z,2.90
2023-03-31T18:44:04.097Z,3.20
2023-03-31T18:45:04.300Z,3.00
2023-03-31T18:46:04.428Z,3.30
2023-03-31T18:47:04.709Z,3.10
2023-03-31T18:48:04.860Z,3.10
2023-03-31T18:49:04.965Z,3.60
2023-03-31T18:50:05.336Z,3.40
2023-03-31T18:51:05.330Z,4.20
2023-03-31T18:52:05.546Z,4.50
2023-03-31T18:53:05.682Z,3.30
2023-03-31T18:54:05.848Z,3.30
2023-03-31T18:55:06.162Z,4.00
2023-03-31T18:56:06.183Z,5.30
2023-03-31T18:57:06.438Z,3.50
2023-03-31T18:58:06.548Z,3.30
2023-03-31T18:59:06.727Z,4.10
2023-03-31T19:00:06.908Z,3.90
2023-03-31T19:01:07.085Z,3.30
2023-03-31T19:02:07.201Z,3.10
2023-03-31T19:03:07.337Z,3.20
2023-03-31T19:04:07.486Z,3.40
2023-03-31T19:05:07.652Z,3.70
2023-03-31T19:06:07.762Z,3.10
2023-03-31T19:07:07.903Z,3.20
2023-03-31T19:08:08.059Z,3.90
2023-03-31T19:09:08.217Z,3.10
2023-03-31T19:10:08.634Z,2.90
2023-03-31T19:11:08.508Z,4.10
2023-03-31T19:12:08.678Z,3.40
2023-03-31T19:13:08.882Z,3.60
2023-03-31T19:14:08.994Z,3.80
2023-03-31T19:15:09.423Z,3.30
2023-03-31T19:16:09.325Z,4.10
2023-03-31T19:17:09.515Z,3.50
2023-03-31T19:18:09.684Z,3.50
2023-03-31T19:19:09.872Z,3.10
2023-03-31T19:20:09.947Z,3.50
2023-03-31T19:21:10.099Z,3.60
2023-03-31T19:22:10.253Z,4.00
2023-03-31T19:23:10.416Z,3.40
2023-03-31T19:24:10.606Z,4.40
2023-03-31T19:25:10.725Z,4.30
2023-03-31T19:26:10.883Z,3.50
2023-03-31T19:27:11.218Z,3.50
2023-03-31T19:28:11.184Z,2.70
2023-03-31T19:29:11.390Z,2.80
2023-03-31T19:30:11.522Z,2.70
2023-03-31T19:31:11.682Z,2.80
2023-03-31T19:32:11.887Z,3.00
2023-03-31T19:33:11.994Z,2.70
2023-03-31T19:34:12.232Z,2.80
2023-03-31T19:35:12.318Z,2.80
2023-03-31T19:36:12.478Z,2.70
2023-03-31T19:37:12.613Z,3.00
2023-03-31T19:38:12.774Z,3.10
2023-03-31T19:39:12.930Z,2.80
2023-03-31T19:40:13.109Z,2.80
2023-03-31T19:41:13.238Z,2.90
2023-03-31T19:42:13.374Z,3.00
2023-03-31T19:43:13.524Z,2.90
2023-03-31T19:44:13.677Z,3.00
2023-03-31T19:45:13.873Z,3.20
2023-03-31T19:46:14.044Z,2.90
2023-03-31T19:47:14.157Z,3.00
2023-03-31T19:48:14.283Z,3.10
2023-03-31T19:49:14.435Z,3.00
2023-03-31T19:50:14.624Z,2.90
2023-03-31T19:51:14.735Z,2.90
2023-03-31T19:52:14.897Z,2.90
2023-03-31T19:53:15.065Z,2.90
2023-03-31T19:54:15.261Z,3.00
2023-03-31T19:55:15.443Z,2.90
2023-03-31T19:56:15.565Z,3.20
2023-03-31T19:57:15.816Z,3.20
2023-03-31T19:58:15.904Z,2.80
2023-03-31T19:59:16.060Z,2.70
2023-03-31T20:00:16.246Z,2.90
2023-03-31T20:01:16.464Z,2.60
2023-03-31T20:02:16.824Z,2.80
2023-03-31T20:03:17.008Z,2.90
2023-03-31T20:04:17.084Z,2.70
2023-03-31T20:05:17.036Z,2.70
2023-03-31T20:06:17.178Z,2.80
2023-03-31T20:07:17.413Z,3.00
2023-03-31T20:08:17.492Z,2.60
2023-03-31T20:09:17.669Z,3.00
2023-03-31T20:10:17.835Z,2.60
2023-03-31T20:11:18.164Z,2.70
2023-03-31T20:12:18.249Z,2.60
2023-03-31T20:13:18.440Z,2.70
2023-03-31T20:14:18.566Z,2.60
2023-03-31T20:15:18.749Z,2.90
2023-03-31T20:16:19.134Z,2.70
2023-03-31T20:17:19.239Z,2.70
2023-03-31T20:18:19.358Z,2.60
2023-03-31T20:19:19.515Z,2.60
2023-03-31T20:20:19.705Z,2.60
2023-03-31T20:21:19.887Z,2.60
2023-03-31T20:22:20.127Z,2.50
2023-03-31T20:23:20.291Z,2.40
2023-03-31T20:24:20.479Z,2.40
2023-03-31T20:25:20.691Z,2.60
2023-03-31T20:26:20.862Z,2.60
2023-03-31T20:27:21.143Z,2.30
2023-03-31T20:28:21.247Z,2.40
2023-03-31T20:29:21.444Z,2.50
2023-03-31T20:30:21.636Z,2.40
2023-03-31T20:31:21.860Z,2.50
2023-03-31T20:32:22.055Z,2.30
2023-03-31T20:33:22.215Z,2.40
2023-03-31T20:34:22.380Z,2.40
2023-03-31T20:35:22.575Z,2.30
2023-03-31T20:36:22.841Z,2.30
2023-03-31T20:37:23.028Z,2.50
2023-03-31T20:38:23.142Z,2.50
2023-03-31T20:39:23.326Z,2.70
2023-03-31T20:40:23.507Z,2.40
2023-03-31T20:41:23.708Z,2.50
2023-03-31T20:42:24.014Z,2.50
2023-03-31T20:43:24.120Z,2.60
2023-03-31T20:44:24.319Z,2.60
2023-03-31T20:45:24.515Z,2.70
2023-03-31T20:46:24.742Z,2.60
2023-03-31T20:47:25.012Z,2.60
2023-03-31T20:48:25.165Z,2.90
2023-03-31T20:49:25.353Z,2.90
2023-03-31T20:50:25.546Z,2.80
2023-03-31T20:51:25.745Z,2.90
2023-03-31T20:52:26.005Z,2.90
2023-03-31T20:53:26.137Z,3.00
2023-03-31T20:54:26.308Z,3.10
2023-03-31T20:55:26.490Z,3.00
2023-03-31T20:56:26.699Z,3.10
2023-03-31T20:57:26.988Z,3.20
2023-03-31T20:58:27.098Z,3.10
2023-03-31T20:59:27.314Z,3.10
2023-03-31T21:00:27.504Z,3.20
2023-03-31T21:01:27.837Z,3.00
2023-03-31T21:02:28.003Z,3.20
2023-03-31T21:03:28.164Z,3.20
2023-03-31T21:04:28.263Z,3.30
2023-03-31T21:05:28.526Z,3.40
2023-03-31T21:06:28.656Z,3.30
2023-03-31T21:07:28.903Z,3.30
2023-03-31T21:08:29.072Z,3.40
2023-03-31T21:09:29.270Z,3.40
2023-03-31T21:10:29.469Z,3.40
2023-03-31T21:11:29.678Z,3.30
2023-03-31T21:12:29.936Z,3.10
2023-03-31T21:13:30.074Z,3.40
2023-03-31T21:14:30.270Z,3.20
2023-03-31T21:15:30.696Z,3.20
2023-03-31T21:16:30.678Z,3.30
2023-03-31T21:17:30.972Z,3.50
2023-03-31T21:18:31.096Z,3.20
2023-03-31T21:19:31.213Z,3.10
2023-03-31T21:20:32.677Z,2.90
2023-03-31T21:21:31.654Z,3.10
2023-03-31T21:22:31.919Z,2.90
2023-03-31T21:23:32.066Z,2.80
2023-03-31T21:24:32.243Z,3.00
2023-03-31T21:25:32.726Z,2.90
2023-03-31T21:26:32.626Z,2.70
2023-03-31T21:27:32.856Z,2.80
2023-03-31T21:28:32.989Z,2.40
2023-03-31T21:29:33.196Z,2.70
2023-03-31T21:30:33.399Z,2.60
2023-03-31T21:31:33.599Z,2.60
2023-03-31T21:32:33.947Z,2.70
2023-03-31T21:33:34.017Z,2.50
2023-03-31T21:34:34.182Z,2.60
2023-03-31T21:35:34.773Z,2.40
2023-03-31T21:36:34.550Z,2.30
2023-03-31T21:37:34.736Z,2.20
2023-03-31T21:38:34.881Z,2.40
2023-03-31T21:39:35.173Z,2.10
2023-03-31T21:40:35.213Z,2.10
2023-03-31T21:41:35.379Z,2.00
2023-03-31T21:42:35.551Z,2.10
2023-03-31T21:43:35.712Z,2.30
2023-03-31T21:44:35.940Z,2.10
2023-03-31T21:45:36.059Z,2.20
2023-03-31T21:46:36.374Z,2.20
2023-03-31T21:47:36.461Z,2.30
2023-03-31T21:48:36.595Z,2.20
2023-03-31T21:49:36.902Z,2.50
2023-03-31T21:50:36.945Z,2.60
2023-03-31T21:51:37.126Z,2.40
2023-03-31T21:52:37.299Z,2.70
2023-03-31T21:53:37.466Z,2.40
2023-03-31T21:54:37.936Z,2.50
2023-03-31T21:55:37.876Z,2.40
2023-03-31T21:56:38.134Z,2.50
2023-03-31T21:57:38.354Z,2.40
2023-03-31T21:58:38.328Z,2.70
2023-03-31T21:59:38.571Z,2.80
2023-03-31T22:00:38.655Z,2.60
2023-03-31T22:01:38.851Z,2.60
2023-03-31T22:02:39.078Z,2.60
2023-03-31T22:03:39.240Z,2.60
2023-03-31T22:04:39.504Z,2.50
2023-03-31T22:05:39.571Z,2.60
2023-03-31T22:06:39.741Z,2.10
2023-03-31T22:07:39.909Z,2.10
2023-03-31T22:08:40.065Z,2.00
2023-03-31T22:09:40.288Z,2.20
2023-03-31T22:10:40.424Z,2.10
2023-03-31T22:11:40.629Z,2.00
2023-03-31T22:12:40.817Z,2.00
2023-03-31T22:13:41.040Z,2.20
2023-03-31T22:14:41.270Z,2.00
2023-03-31T22:15:41.437Z,1.90
2023-03-31T22:16:41.632Z,2.00
2023-03-31T22:17:41.844Z,2.20
2023-03-31T22:18:42.030Z,2.30
2023-03-31T22:19:42.296Z,2.10
2023-03-31T22:20:42.447Z,2.00
2023-03-31T22:21:42.658Z,1.70
2023-03-31T22:22:42.859Z,1.80
2023-03-31T22:23:43.085Z,1.90
2023-03-31T22:24:43.245Z,1.80
2023-03-31T22:25:43.462Z,1.80
2023-03-31T22:26:43.659Z,2.00
2023-03-31T22:27:43.890Z,1.90
2023-03-31T22:28:44.056Z,1.90
2023-03-31T22:29:44.215Z,1.80
2023-03-31T22:30:44.432Z,1.90
2023-03-31T22:31:44.662Z,1.70
2023-03-31T22:32:44.837Z,1.80
2023-03-31T22:33:45.079Z,1.90
2023-03-31T22:34:45.265Z,1.80
2023-03-31T22:35:45.470Z,1.70
2023-03-31T22:36:45.634Z,1.60
2023-03-31T22:37:45.841Z,1.70
2023-03-31T22:38:46.115Z,1.70
2023-03-31T22:39:46.201Z,1.60
2023-03-31T22:40:46.370Z,1.80
2023-03-31T22:41:46.535Z,1.70
2023-03-31T22:42:46.698Z,1.70
2023-03-31T22:43:46.971Z,1.70
2023-03-31T22:44:47.046Z,1.60
2023-03-31T22:45:47.224Z,1.60
2023-03-31T22:46:47.410Z,1.70
2023-03-31T22:47:47.617Z,1.50
2023-03-31T22:48:47.823Z,1.70
2023-03-31T22:49:47.927Z,1.80
2023-03-31T22:50:48.067Z,1.90
2023-03-31T22:51:48.229Z,1.80
2023-03-31T22:52:48.395Z,1.80
2023-03-31T22:53:48.605Z,1.90
2023-03-31T22:54:48.749Z,2.00
2023-03-31T22:55:54.263Z,2.10
2023-03-31T22:56:49.127Z,2.20
2023-03-31T22:57:49.426Z,2.20
2023-03-31T22:58:49.433Z,2.20
2023-03-31T22:59:49.613Z,2.30
2023-03-31T23:00:49.821Z,2.40
2023-03-31T23:01:49.996Z,2.40
2023-03-31T23:02:50.277Z,2.50
2023-03-31T23:03:50.364Z,2.70
2023-03-31T23:04:50.492Z,2.90
2023-03-31T23:05:50.846Z,2.70
2023-03-31T23:06:50.825Z,2.90
2023-03-31T23:07:51.019Z,2.80
2023-03-31T23:08:51.168Z,3.00
2023-03-31T23:09:51.327Z,3.00
2023-03-31T23:10:51.480Z,2.80
2023-03-31T23:11:51.667Z,3.10
2023-03-31T23:12:51.794Z,3.20
2023-03-31T23:13:51.980Z,2.80
2023-03-31T23:14:52.140Z,3.20
2023-03-31T23:15:52.318Z,3.20
2023-03-31T23:16:52.597Z,3.30
2023-03-31T23:17:52.739Z,3.20
2023-03-31T23:18:52.894Z,3.00
2023-03-31T23:19:53.067Z,3.30
2023-03-31T23:20:53.293Z,3.30
2023-03-31T23:21:53.475Z,3.30
2023-03-31T23:22:53.642Z,3.40
2023-03-31T23:23:53.913Z,3.30
2023-03-31T23:24:54.036Z,3.50
2023-03-31T23:25:54.231Z,3.60
2023-03-31T23:26:54.476Z,3.50
2023-03-31T23:27:54.625Z,3.60
2023-03-31T23:28:54.847Z,3.50
2023-03-31T23:29:55.040Z,3.70
2023-03-31T23:30:55.221Z,3.60
2023-03-31T23:31:55.417Z,3.90
2023-03-31T23:32:55.571Z,3.70
2023-03-31T23:33:55.757Z,3.80
2023-03-31T23:34:55.896Z,3.80
2023-03-31T23:35:56.209Z,3.60
2023-03-31T23:36:56.238Z,3.40
2023-03-31T23:37:56.453Z,3.60
2023-03-31T23:38:56.574Z,3.80
2023-03-31T23:39:56.734Z,3.50
2023-03-31T23:40:56.935Z,3.60
2023-03-31T23:41:57.068Z,3.70
2023-03-31T23:42:57.230Z,3.60
2023-03-31T23:43:57.416Z,3.50
2023-03-31T23:44:57.555Z,3.30
2023-03-31T23:45:57.791Z,3.60
2023-03-31T23:46:57.904Z,3.50
2023-03-31T23:47:58.125Z,3.40
2023-03-31T23:48:58.255Z,3.10
2023-03-31T23:49:58.420Z,3.40
2023-03-31T23:50:58.627Z,3.40
2023-03-31T23:51:58.767Z,3.30
2023-03-31T23:52:58.928Z,3.50
2023-03-31T23:53:59.224Z,3.40
2023-03-31T23:54:59.255Z,3.10
2023-03-31T23:55:59.426Z,3.40
2023-03-31T23:56:59.585Z,3.50
2023-03-31T23:57:59.735Z,3.20
2023-03-31T23:58:59.904Z,3.10
